sensor_id;sensor_type;location;lat;lon;timestamp;temperature;humidity
57390;DHT22;43217;52.694;6.214;2022-07-29T00:00:15;16.10;99.90
57390;DHT22;43217;52.694;6.214;2022-07-29T00:02:41;16.10;99.90
57390;DHT22;43217;52.694;6.214;2022-07-29T00:05:08;16.10;99.90
57390;DHT22;43217;52.694;6.214;2022-07-29T00:07:35;16.10;99.90
57390;DHT22;43217;52.694;6.214;2022-07-29T00:10:00;16.10;99.90
57390;DHT22;43217;52.694;6.214;2022-07-29T00:12:26;16.00;99.90
57390;DHT22;43217;52.694;6.214;2022-07-29T00:14:56;16.00;99.90
57390;DHT22;43217;52.694;6.214;2022-07-29T00:17:23;16.00;99.90
57390;DHT22;43217;52.694;6.214;2022-07-29T00:19:49;16.00;99.90
57390;DHT22;43217;52.694;6.214;2022-07-29T00:22:14;15.90;99.90
57390;DHT22;43217;52.694;6.214;2022-07-29T00:24:40;15.90;99.90
57390;DHT22;43217;52.694;6.214;2022-07-29T00:27:06;15.90;99.90
57390;DHT22;43217;52.694;6.214;2022-07-29T00:29:31;15.90;99.90
57390;DHT22;43217;52.694;6.214;2022-07-29T00:31:57;15.90;99.90
57390;DHT22;43217;52.694;6.214;2022-07-29T00:34:22;15.90;99.90
57390;DHT22;43217;52.694;6.214;2022-07-29T00:37:06;15.80;99.90
57390;DHT22;43217;52.694;6.214;2022-07-29T00:39:32;15.80;99.90
57390;DHT22;43217;52.694;6.214;2022-07-29T00:41:58;15.90;99.90
57390;DHT22;43217;52.694;6.214;2022-07-29T00:44:27;15.80;99.90
57390;DHT22;43217;52.694;6.214;2022-07-29T00:46:52;15.80;99.90
57390;DHT22;43217;52.694;6.214;2022-07-29T00:49:18;15.80;99.90
57390;DHT22;43217;52.694;6.214;2022-07-29T00:51:44;15.80;99.90
57390;DHT22;43217;52.694;6.214;2022-07-29T00:54:09;15.80;99.90
57390;DHT22;43217;52.694;6.214;2022-07-29T00:56:36;15.90;99.90
57390;DHT22;43217;52.694;6.214;2022-07-29T00:59:01;15.90;99.90
57390;DHT22;43217;52.694;6.214;2022-07-29T01:01:27;15.90;99.90
57390;DHT22;43217;52.694;6.214;2022-07-29T01:03:53;15.80;99.90
57390;DHT22;43217;52.694;6.214;2022-07-29T01:06:19;15.80;99.90
57390;DHT22;43217;52.694;6.214;2022-07-29T01:08:47;15.80;99.90
57390;DHT22;43217;52.694;6.214;2022-07-29T01:11:15;15.90;99.90
57390;DHT22;43217;52.694;6.214;2022-07-29T01:13:42;15.80;99.90
57390;DHT22;43217;52.694;6.214;2022-07-29T01:16:15;15.80;99.90
57390;DHT22;43217;52.694;6.214;2022-07-29T01:18:47;15.80;99.90
57390;DHT22;43217;52.694;6.214;2022-07-29T01:27:02;15.80;99.90
57390;DHT22;43217;52.694;6.214;2022-07-29T01:29:38;15.80;99.90
57390;DHT22;43217;52.694;6.214;2022-07-29T01:32:18;15.80;99.90
57390;DHT22;43217;52.694;6.214;2022-07-29T01:34:50;15.80;99.90
57390;DHT22;43217;52.694;6.214;2022-07-29T01:39:47;15.80;99.90
57390;DHT22;43217;52.694;6.214;2022-07-29T01:42:39;15.80;99.90
57390;DHT22;43217;52.694;6.214;2022-07-29T01:48:00;15.80;99.90
57390;DHT22;43217;52.694;6.214;2022-07-29T01:50:37;15.80;99.90
57390;DHT22;43217;52.694;6.214;2022-07-29T01:53:08;15.80;99.90
57390;DHT22;43217;52.694;6.214;2022-07-29T01:55:38;15.80;99.90
57390;DHT22;43217;52.694;6.214;2022-07-29T01:58:05;15.80;99.90
57390;DHT22;43217;52.694;6.214;2022-07-29T02:00:32;15.80;99.90
57390;DHT22;43217;52.694;6.214;2022-07-29T02:03:00;15.80;99.90
57390;DHT22;43217;52.694;6.214;2022-07-29T02:05:28;15.80;99.90
57390;DHT22;43217;52.694;6.214;2022-07-29T02:07:56;15.70;99.90
57390;DHT22;43217;52.694;6.214;2022-07-29T02:10:29;15.70;99.90
57390;DHT22;43217;52.694;6.214;2022-07-29T02:12:56;15.70;99.90
57390;DHT22;43217;52.694;6.214;2022-07-29T02:15:24;15.70;99.90
57390;DHT22;43217;52.694;6.214;2022-07-29T02:17:54;15.70;99.90
57390;DHT22;43217;52.694;6.214;2022-07-29T02:20:22;15.70;99.90
57390;DHT22;43217;52.694;6.214;2022-07-29T02:22:50;15.70;99.90
57390;DHT22;43217;52.694;6.214;2022-07-29T02:25:17;15.60;99.90
57390;DHT22;43217;52.694;6.214;2022-07-29T02:27:44;15.70;99.90
57390;DHT22;43217;52.694;6.214;2022-07-29T02:30:12;15.60;99.90
57390;DHT22;43217;52.694;6.214;2022-07-29T02:32:39;15.60;99.90
57390;DHT22;43217;52.694;6.214;2022-07-29T02:35:08;15.70;99.90
57390;DHT22;43217;52.694;6.214;2022-07-29T02:37:36;15.60;99.90
57390;DHT22;43217;52.694;6.214;2022-07-29T02:40:02;15.60;99.90
57390;DHT22;43217;52.694;6.214;2022-07-29T02:42:29;15.60;99.90
57390;DHT22;43217;52.694;6.214;2022-07-29T02:44:56;15.60;99.90
57390;DHT22;43217;52.694;6.214;2022-07-29T02:47:27;15.60;99.90
57390;DHT22;43217;52.694;6.214;2022-07-29T02:50:35;15.60;99.90
57390;DHT22;43217;52.694;6.214;2022-07-29T02:53:18;15.60;99.90
57390;DHT22;43217;52.694;6.214;2022-07-29T02:55:47;15.60;99.90
57390;DHT22;43217;52.694;6.214;2022-07-29T02:58:30;15.60;99.90
57390;DHT22;43217;52.694;6.214;2022-07-29T03:00:59;15.60;99.90
57390;DHT22;43217;52.694;6.214;2022-07-29T03:03:29;15.60;99.90
57390;DHT22;43217;52.694;6.214;2022-07-29T03:05:57;15.60;99.90
57390;DHT22;43217;52.694;6.214;2022-07-29T03:08:24;15.50;99.90
57390;DHT22;43217;52.694;6.214;2022-07-29T03:10:51;15.50;99.90
57390;DHT22;43217;52.694;6.214;2022-07-29T03:13:18;15.50;99.90
57390;DHT22;43217;52.694;6.214;2022-07-29T03:15:45;15.50;99.90
57390;DHT22;43217;52.694;6.214;2022-07-29T03:18:11;15.50;99.90
57390;DHT22;43217;52.694;6.214;2022-07-29T03:20:38;15.40;99.90
57390;DHT22;43217;52.694;6.214;2022-07-29T03:23:04;15.50;99.90
57390;DHT22;43217;52.694;6.214;2022-07-29T03:25:30;15.40;99.90
57390;DHT22;43217;52.694;6.214;2022-07-29T03:27:56;15.50;99.90
57390;DHT22;43217;52.694;6.214;2022-07-29T03:30:23;15.40;99.90
57390;DHT22;43217;52.694;6.214;2022-07-29T03:32:49;15.50;99.90
57390;DHT22;43217;52.694;6.214;2022-07-29T03:35:15;15.40;99.90
57390;DHT22;43217;52.694;6.214;2022-07-29T03:37:44;15.40;99.90
57390;DHT22;43217;52.694;6.214;2022-07-29T03:40:13;15.40;99.90
57390;DHT22;43217;52.694;6.214;2022-07-29T03:42:40;15.40;99.90
57390;DHT22;43217;52.694;6.214;2022-07-29T03:45:07;15.40;99.90
57390;DHT22;43217;52.694;6.214;2022-07-29T03:47:34;15.30;99.90
57390;DHT22;43217;52.694;6.214;2022-07-29T03:50:02;15.30;99.90
57390;DHT22;43217;52.694;6.214;2022-07-29T03:52:30;15.20;99.90
57390;DHT22;43217;52.694;6.214;2022-07-29T03:54:55;15.20;99.90
57390;DHT22;43217;52.694;6.214;2022-07-29T03:57:23;15.20;99.90
57390;DHT22;43217;52.694;6.214;2022-07-29T03:59:50;15.10;99.90
57390;DHT22;43217;52.694;6.214;2022-07-29T04:02:16;15.10;99.90
57390;DHT22;43217;52.694;6.214;2022-07-29T04:04:42;15.10;99.90
57390;DHT22;43217;52.694;6.214;2022-07-29T04:07:09;15.00;99.90
57390;DHT22;43217;52.694;6.214;2022-07-29T04:09:36;15.00;99.90
57390;DHT22;43217;52.694;6.214;2022-07-29T04:12:02;15.00;99.90
57390;DHT22;43217;52.694;6.214;2022-07-29T04:14:27;15.00;99.90
57390;DHT22;43217;52.694;6.214;2022-07-29T04:16:55;15.00;99.90
57390;DHT22;43217;52.694;6.214;2022-07-29T04:19:20;15.00;99.90
57390;DHT22;43217;52.694;6.214;2022-07-29T04:21:47;15.00;99.90
57390;DHT22;43217;52.694;6.214;2022-07-29T04:24:13;15.00;99.90
57390;DHT22;43217;52.694;6.214;2022-07-29T04:26:45;15.00;99.90
57390;DHT22;43217;52.694;6.214;2022-07-29T04:29:11;15.00;99.90
57390;DHT22;43217;52.694;6.214;2022-07-29T04:31:38;14.90;99.90
57390;DHT22;43217;52.694;6.214;2022-07-29T04:34:03;14.90;99.90
57390;DHT22;43217;52.694;6.214;2022-07-29T04:36:29;14.90;99.90
57390;DHT22;43217;52.694;6.214;2022-07-29T04:38:54;14.90;99.90
57390;DHT22;43217;52.694;6.214;2022-07-29T04:41:20;14.90;99.90
57390;DHT22;43217;52.694;6.214;2022-07-29T04:43:45;14.90;99.90
57390;DHT22;43217;52.694;6.214;2022-07-29T04:46:11;14.90;99.90
57390;DHT22;43217;52.694;6.214;2022-07-29T04:48:36;14.90;99.90
57390;DHT22;43217;52.694;6.214;2022-07-29T04:51:02;14.90;99.90
57390;DHT22;43217;52.694;6.214;2022-07-29T04:53:27;14.90;99.90
57390;DHT22;43217;52.694;6.214;2022-07-29T04:55:53;14.90;99.90
57390;DHT22;43217;52.694;6.214;2022-07-29T04:58:18;14.90;99.90
57390;DHT22;43217;52.694;6.214;2022-07-29T05:00:44;14.90;99.90
57390;DHT22;43217;52.694;6.214;2022-07-29T05:03:10;14.90;99.90
57390;DHT22;43217;52.694;6.214;2022-07-29T05:05:35;14.90;99.90
57390;DHT22;43217;52.694;6.214;2022-07-29T05:08:01;15.00;99.90
57390;DHT22;43217;52.694;6.214;2022-07-29T05:10:26;15.00;99.90
57390;DHT22;43217;52.694;6.214;2022-07-29T05:12:52;15.10;99.90
57390;DHT22;43217;52.694;6.214;2022-07-29T05:15:18;15.10;99.90
57390;DHT22;43217;52.694;6.214;2022-07-29T05:17:43;15.10;99.90
57390;DHT22;43217;52.694;6.214;2022-07-29T05:20:09;15.10;99.90
57390;DHT22;43217;52.694;6.214;2022-07-29T05:22:35;15.20;99.90
57390;DHT22;43217;52.694;6.214;2022-07-29T05:25:00;15.20;99.90
57390;DHT22;43217;52.694;6.214;2022-07-29T05:27:26;15.20;99.90
57390;DHT22;43217;52.694;6.214;2022-07-29T05:29:51;15.20;99.90
57390;DHT22;43217;52.694;6.214;2022-07-29T05:32:17;15.20;99.90
57390;DHT22;43217;52.694;6.214;2022-07-29T05:34:42;15.20;99.90
57390;DHT22;43217;52.694;6.214;2022-07-29T05:37:08;15.30;99.90
57390;DHT22;43217;52.694;6.214;2022-07-29T05:39:33;15.30;99.90
57390;DHT22;43217;52.694;6.214;2022-07-29T05:41:59;15.40;99.90
57390;DHT22;43217;52.694;6.214;2022-07-29T05:44:24;15.50;99.90
57390;DHT22;43217;52.694;6.214;2022-07-29T05:46:50;15.60;99.90
57390;DHT22;43217;52.694;6.214;2022-07-29T05:49:15;15.70;99.90
57390;DHT22;43217;52.694;6.214;2022-07-29T05:51:41;15.70;99.90
57390;DHT22;43217;52.694;6.214;2022-07-29T05:54:06;15.80;99.90
57390;DHT22;43217;52.694;6.214;2022-07-29T05:56:32;15.90;99.90
57390;DHT22;43217;52.694;6.214;2022-07-29T05:58:57;15.90;99.90
57390;DHT22;43217;52.694;6.214;2022-07-29T06:01:23;16.00;99.90
57390;DHT22;43217;52.694;6.214;2022-07-29T06:03:49;16.00;99.90
57390;DHT22;43217;52.694;6.214;2022-07-29T06:06:14;16.00;99.90
57390;DHT22;43217;52.694;6.214;2022-07-29T06:08:40;16.00;99.90
57390;DHT22;43217;52.694;6.214;2022-07-29T06:11:05;16.00;99.90
57390;DHT22;43217;52.694;6.214;2022-07-29T06:13:31;16.00;99.90
57390;DHT22;43217;52.694;6.214;2022-07-29T06:15:57;16.00;99.90
57390;DHT22;43217;52.694;6.214;2022-07-29T06:18:22;16.00;99.90
57390;DHT22;43217;52.694;6.214;2022-07-29T06:20:52;16.00;99.90
57390;DHT22;43217;52.694;6.214;2022-07-29T06:23:18;16.00;99.90
57390;DHT22;43217;52.694;6.214;2022-07-29T06:25:44;16.00;99.90
57390;DHT22;43217;52.694;6.214;2022-07-29T06:28:09;16.00;99.90
57390;DHT22;43217;52.694;6.214;2022-07-29T06:30:35;16.00;99.90
57390;DHT22;43217;52.694;6.214;2022-07-29T06:33:00;15.90;99.90
57390;DHT22;43217;52.694;6.214;2022-07-29T06:35:27;15.90;99.90
57390;DHT22;43217;52.694;6.214;2022-07-29T06:37:54;15.80;99.90
57390;DHT22;43217;52.694;6.214;2022-07-29T06:40:19;15.80;99.90
57390;DHT22;43217;52.694;6.214;2022-07-29T06:43:04;15.90;99.90
57390;DHT22;43217;52.694;6.214;2022-07-29T06:45:33;15.80;99.90
57390;DHT22;43217;52.694;6.214;2022-07-29T06:47:58;15.80;99.90
57390;DHT22;43217;52.694;6.214;2022-07-29T06:50:24;15.90;99.90
57390;DHT22;43217;52.694;6.214;2022-07-29T06:52:50;15.90;99.90
57390;DHT22;43217;52.694;6.214;2022-07-29T06:55:15;15.90;99.90
57390;DHT22;43217;52.694;6.214;2022-07-29T06:57:41;15.90;99.90
57390;DHT22;43217;52.694;6.214;2022-07-29T07:00:07;15.90;99.90
57390;DHT22;43217;52.694;6.214;2022-07-29T07:02:32;16.00;99.90
57390;DHT22;43217;52.694;6.214;2022-07-29T07:04:58;16.00;99.90
57390;DHT22;43217;52.694;6.214;2022-07-29T07:07:24;16.00;99.90
57390;DHT22;43217;52.694;6.214;2022-07-29T07:09:49;16.00;99.90
57390;DHT22;43217;52.694;6.214;2022-07-29T07:12:15;16.00;99.90
57390;DHT22;43217;52.694;6.214;2022-07-29T07:14:40;16.00;99.90
57390;DHT22;43217;52.694;6.214;2022-07-29T07:17:06;16.00;99.90
57390;DHT22;43217;52.694;6.214;2022-07-29T07:19:32;16.10;99.90
57390;DHT22;43217;52.694;6.214;2022-07-29T07:21:57;16.10;99.90
57390;DHT22;43217;52.694;6.214;2022-07-29T07:24:23;16.10;99.90
57390;DHT22;43217;52.694;6.214;2022-07-29T07:26:48;16.00;99.90
57390;DHT22;43217;52.694;6.214;2022-07-29T07:29:14;16.00;99.90
57390;DHT22;43217;52.694;6.214;2022-07-29T07:31:39;16.00;99.90
57390;DHT22;43217;52.694;6.214;2022-07-29T07:34:05;16.00;99.90
57390;DHT22;43217;52.694;6.214;2022-07-29T07:36:30;16.00;99.90
57390;DHT22;43217;52.694;6.214;2022-07-29T07:38:56;15.90;99.90
57390;DHT22;43217;52.694;6.214;2022-07-29T07:41:21;16.00;99.90
57390;DHT22;43217;52.694;6.214;2022-07-29T07:43:47;16.00;99.90
57390;DHT22;43217;52.694;6.214;2022-07-29T07:46:13;16.00;99.90
57390;DHT22;43217;52.694;6.214;2022-07-29T07:48:38;16.00;99.90
57390;DHT22;43217;52.694;6.214;2022-07-29T07:51:04;16.10;99.90
57390;DHT22;43217;52.694;6.214;2022-07-29T07:53:29;16.20;99.90
57390;DHT22;43217;52.694;6.214;2022-07-29T07:55:55;16.20;99.90
57390;DHT22;43217;52.694;6.214;2022-07-29T07:58:21;16.20;99.90
57390;DHT22;43217;52.694;6.214;2022-07-29T08:00:47;16.30;99.90
57390;DHT22;43217;52.694;6.214;2022-07-29T08:03:12;16.30;99.90
57390;DHT22;43217;52.694;6.214;2022-07-29T08:05:45;16.30;99.90
57390;DHT22;43217;52.694;6.214;2022-07-29T08:08:11;16.40;99.90
57390;DHT22;43217;52.694;6.214;2022-07-29T08:10:37;16.50;99.90
57390;DHT22;43217;52.694;6.214;2022-07-29T08:13:18;16.60;99.90
57390;DHT22;43217;52.694;6.214;2022-07-29T08:15:44;16.70;99.90
57390;DHT22;43217;52.694;6.214;2022-07-29T08:18:11;16.80;99.90
57390;DHT22;43217;52.694;6.214;2022-07-29T08:20:36;16.90;99.90
57390;DHT22;43217;52.694;6.214;2022-07-29T08:23:03;17.20;99.90
57390;DHT22;43217;52.694;6.214;2022-07-29T08:25:29;17.50;99.90
57390;DHT22;43217;52.694;6.214;2022-07-29T08:27:55;17.70;99.90
57390;DHT22;43217;52.694;6.214;2022-07-29T08:30:20;17.80;99.90
57390;DHT22;43217;52.694;6.214;2022-07-29T08:32:47;17.70;99.90
57390;DHT22;43217;52.694;6.214;2022-07-29T08:35:13;17.60;99.90
57390;DHT22;43217;52.694;6.214;2022-07-29T08:37:38;17.70;99.90
57390;DHT22;43217;52.694;6.214;2022-07-29T08:40:04;17.80;99.90
57390;DHT22;43217;52.694;6.214;2022-07-29T08:42:29;17.90;99.90
57390;DHT22;43217;52.694;6.214;2022-07-29T08:44:55;18.00;99.90
57390;DHT22;43217;52.694;6.214;2022-07-29T08:47:22;18.10;99.90
57390;DHT22;43217;52.694;6.214;2022-07-29T08:49:47;18.00;99.90
57390;DHT22;43217;52.694;6.214;2022-07-29T08:52:13;18.00;99.90
57390;DHT22;43217;52.694;6.214;2022-07-29T08:54:39;17.90;99.90
57390;DHT22;43217;52.694;6.214;2022-07-29T08:57:08;17.90;99.90
57390;DHT22;43217;52.694;6.214;2022-07-29T08:59:34;17.90;99.90
57390;DHT22;43217;52.694;6.214;2022-07-29T09:02:00;17.90;99.90
57390;DHT22;43217;52.694;6.214;2022-07-29T09:04:29;17.90;99.90
57390;DHT22;43217;52.694;6.214;2022-07-29T09:06:57;18.00;99.90
57390;DHT22;43217;52.694;6.214;2022-07-29T09:09:25;18.10;99.90
57390;DHT22;43217;52.694;6.214;2022-07-29T09:11:51;18.10;99.90
57390;DHT22;43217;52.694;6.214;2022-07-29T09:14:18;18.30;99.90
57390;DHT22;43217;52.694;6.214;2022-07-29T09:16:51;18.40;99.90
57390;DHT22;43217;52.694;6.214;2022-07-29T09:19:21;18.50;99.90
57390;DHT22;43217;52.694;6.214;2022-07-29T09:21:46;18.50;99.90
57390;DHT22;43217;52.694;6.214;2022-07-29T09:24:43;18.50;99.90
57390;DHT22;43217;52.694;6.214;2022-07-29T09:27:19;18.70;99.90
57390;DHT22;43217;52.694;6.214;2022-07-29T09:29:46;18.70;99.90
57390;DHT22;43217;52.694;6.214;2022-07-29T09:32:12;18.70;99.90
57390;DHT22;43217;52.694;6.214;2022-07-29T09:34:37;18.80;99.90
57390;DHT22;43217;52.694;6.214;2022-07-29T09:37:03;19.00;99.90
57390;DHT22;43217;52.694;6.214;2022-07-29T09:39:47;19.20;99.90
57390;DHT22;43217;52.694;6.214;2022-07-29T09:42:13;19.30;99.90
57390;DHT22;43217;52.694;6.214;2022-07-29T09:44:48;19.40;99.90
57390;DHT22;43217;52.694;6.214;2022-07-29T09:47:15;19.50;99.90
57390;DHT22;43217;52.694;6.214;2022-07-29T09:49:57;19.40;99.90
57390;DHT22;43217;52.694;6.214;2022-07-29T09:52:23;19.40;99.90
57390;DHT22;43217;52.694;6.214;2022-07-29T09:54:49;19.50;99.90
57390;DHT22;43217;52.694;6.214;2022-07-29T09:57:25;19.50;99.90
57390;DHT22;43217;52.694;6.214;2022-07-29T10:00:03;19.40;99.90
57390;DHT22;43217;52.694;6.214;2022-07-29T10:02:32;19.50;99.90
57390;DHT22;43217;52.694;6.214;2022-07-29T10:04:58;19.50;99.90
57390;DHT22;43217;52.694;6.214;2022-07-29T10:07:24;19.70;99.90
57390;DHT22;43217;52.694;6.214;2022-07-29T10:09:56;19.70;99.90
57390;DHT22;43217;52.694;6.214;2022-07-29T10:12:22;19.90;99.90
57390;DHT22;43217;52.694;6.214;2022-07-29T10:14:47;20.00;99.90
57390;DHT22;43217;52.694;6.214;2022-07-29T10:17:13;20.20;99.90
57390;DHT22;43217;52.694;6.214;2022-07-29T10:19:39;20.20;99.90
57390;DHT22;43217;52.694;6.214;2022-07-29T10:22:07;20.20;99.90
57390;DHT22;43217;52.694;6.214;2022-07-29T10:24:34;20.30;99.90
57390;DHT22;43217;52.694;6.214;2022-07-29T10:27:01;20.30;99.90
57390;DHT22;43217;52.694;6.214;2022-07-29T10:29:27;20.30;99.90
57390;DHT22;43217;52.694;6.214;2022-07-29T10:35:08;20.30;99.90
57390;DHT22;43217;52.694;6.214;2022-07-29T10:40:34;20.40;99.90
57390;DHT22;43217;52.694;6.214;2022-07-29T10:43:22;20.40;99.90
57390;DHT22;43217;52.694;6.214;2022-07-29T10:45:49;20.50;99.90
57390;DHT22;43217;52.694;6.214;2022-07-29T10:48:19;20.50;99.90
57390;DHT22;43217;52.694;6.214;2022-07-29T10:53:24;20.40;99.90
57390;DHT22;43217;52.694;6.214;2022-07-29T10:55:51;20.50;99.90
57390;DHT22;43217;52.694;6.214;2022-07-29T10:58:17;20.50;99.90
57390;DHT22;43217;52.694;6.214;2022-07-29T11:00:48;20.60;99.90
57390;DHT22;43217;52.694;6.214;2022-07-29T11:05:58;20.60;99.90
57390;DHT22;43217;52.694;6.214;2022-07-29T11:08:24;20.70;99.90
57390;DHT22;43217;52.694;6.214;2022-07-29T11:10:51;20.80;99.90
57390;DHT22;43217;52.694;6.214;2022-07-29T11:16:02;21.00;99.90
57390;DHT22;43217;52.694;6.214;2022-07-29T11:19:18;21.00;99.90
57390;DHT22;43217;52.694;6.214;2022-07-29T11:21:35;20.90;99.90
57390;DHT22;43217;52.694;6.214;2022-07-29T11:24:11;21.10;99.90
57390;DHT22;43217;52.694;6.214;2022-07-29T11:26:36;21.20;99.90
57390;DHT22;43217;52.694;6.214;2022-07-29T11:29:03;21.50;99.90
57390;DHT22;43217;52.694;6.214;2022-07-29T11:34:25;21.80;99.30
57390;DHT22;43217;52.694;6.214;2022-07-29T11:39:30;22.20;94.80
57390;DHT22;43217;52.694;6.214;2022-07-29T11:44:59;22.50;95.20
57390;DHT22;43217;52.694;6.214;2022-07-29T11:47:26;22.70;95.80
57390;DHT22;43217;52.694;6.214;2022-07-29T11:49:53;23.00;91.70
57390;DHT22;43217;52.694;6.214;2022-07-29T11:52:19;23.10;90.10
57390;DHT22;43217;52.694;6.214;2022-07-29T11:54:46;23.40;89.60
57390;DHT22;43217;52.694;6.214;2022-07-29T11:57:12;23.70;87.60
57390;DHT22;43217;52.694;6.214;2022-07-29T11:59:41;23.70;83.70
57390;DHT22;43217;52.694;6.214;2022-07-29T12:02:07;23.80;83.30
57390;DHT22;43217;52.694;6.214;2022-07-29T12:04:33;23.90;83.50
57390;DHT22;43217;52.694;6.214;2022-07-29T12:06:59;24.00;86.90
57390;DHT22;43217;52.694;6.214;2022-07-29T12:09:25;24.00;88.90
57390;DHT22;43217;52.694;6.214;2022-07-29T12:11:57;23.90;84.00
57390;DHT22;43217;52.694;6.214;2022-07-29T12:14:30;23.80;83.70
57390;DHT22;43217;52.694;6.214;2022-07-29T12:16:56;23.70;85.20
57390;DHT22;43217;52.694;6.214;2022-07-29T12:19:22;23.60;88.60
57390;DHT22;43217;52.694;6.214;2022-07-29T12:21:48;23.50;85.60
57390;DHT22;43217;52.694;6.214;2022-07-29T12:24:14;23.50;86.20
57390;DHT22;43217;52.694;6.214;2022-07-29T12:26:52;23.50;84.90
57390;DHT22;43217;52.694;6.214;2022-07-29T12:29:18;23.50;84.40
57390;DHT22;43217;52.694;6.214;2022-07-29T12:31:44;23.50;88.20
57390;DHT22;43217;52.694;6.214;2022-07-29T12:34:10;23.50;86.90
57390;DHT22;43217;52.694;6.214;2022-07-29T12:36:36;23.60;86.90
57390;DHT22;43217;52.694;6.214;2022-07-29T12:39:02;23.60;85.60
57390;DHT22;43217;52.694;6.214;2022-07-29T12:41:28;23.60;83.20
57390;DHT22;43217;52.694;6.214;2022-07-29T12:43:54;23.50;84.70
57390;DHT22;43217;52.694;6.214;2022-07-29T12:46:19;23.50;87.40
57390;DHT22;43217;52.694;6.214;2022-07-29T12:48:49;23.50;84.50
57390;DHT22;43217;52.694;6.214;2022-07-29T12:51:15;23.50;84.30
57390;DHT22;43217;52.694;6.214;2022-07-29T12:53:51;23.40;83.60
57390;DHT22;43217;52.694;6.214;2022-07-29T12:56:26;23.30;82.00
57390;DHT22;43217;52.694;6.214;2022-07-29T12:58:52;23.30;85.30
57390;DHT22;43217;52.694;6.214;2022-07-29T13:01:18;23.30;86.50
57390;DHT22;43217;52.694;6.214;2022-07-29T13:03:52;23.30;85.70
57390;DHT22;43217;52.694;6.214;2022-07-29T13:09:06;23.30;86.00
57390;DHT22;43217;52.694;6.214;2022-07-29T13:11:42;23.20;86.60
57390;DHT22;43217;52.694;6.214;2022-07-29T13:14:09;23.20;88.40
57390;DHT22;43217;52.694;6.214;2022-07-29T13:16:35;23.20;84.60
57390;DHT22;43217;52.694;6.214;2022-07-29T13:21:30;23.30;82.70
57390;DHT22;43217;52.694;6.214;2022-07-29T13:23:55;23.30;81.30
57390;DHT22;43217;52.694;6.214;2022-07-29T13:26:20;23.30;76.90
57390;DHT22;43217;52.694;6.214;2022-07-29T13:28:46;23.30;77.50
57390;DHT22;43217;52.694;6.214;2022-07-29T13:31:11;23.30;80.30
57390;DHT22;43217;52.694;6.214;2022-07-29T13:33:37;23.30;82.90
57390;DHT22;43217;52.694;6.214;2022-07-29T13:36:02;23.30;82.90
57390;DHT22;43217;52.694;6.214;2022-07-29T13:38:28;23.40;82.20
57390;DHT22;43217;52.694;6.214;2022-07-29T13:40:53;23.40;81.50
57390;DHT22;43217;52.694;6.214;2022-07-29T13:43:19;23.40;82.60
57390;DHT22;43217;52.694;6.214;2022-07-29T13:45:44;23.50;83.00
57390;DHT22;43217;52.694;6.214;2022-07-29T13:48:10;23.50;83.50
57390;DHT22;43217;52.694;6.214;2022-07-29T13:50:36;23.50;83.80
57390;DHT22;43217;52.694;6.214;2022-07-29T13:53:01;23.50;84.80
57390;DHT22;43217;52.694;6.214;2022-07-29T13:55:27;23.50;82.20
57390;DHT22;43217;52.694;6.214;2022-07-29T13:57:53;23.50;85.30
57390;DHT22;43217;52.694;6.214;2022-07-29T14:00:18;23.60;85.10
57390;DHT22;43217;52.694;6.214;2022-07-29T14:02:44;23.60;83.10
57390;DHT22;43217;52.694;6.214;2022-07-29T14:05:10;23.70;84.20
57390;DHT22;43217;52.694;6.214;2022-07-29T14:07:36;23.80;81.40
57390;DHT22;43217;52.694;6.214;2022-07-29T14:10:02;23.70;79.40
57390;DHT22;43217;52.694;6.214;2022-07-29T14:12:28;23.70;77.50
57390;DHT22;43217;52.694;6.214;2022-07-29T14:14:54;23.60;77.70
57390;DHT22;43217;52.694;6.214;2022-07-29T14:17:19;23.70;78.40
57390;DHT22;43217;52.694;6.214;2022-07-29T14:19:45;23.70;79.40
57390;DHT22;43217;52.694;6.214;2022-07-29T14:22:10;23.80;78.90
57390;DHT22;43217;52.694;6.214;2022-07-29T14:24:36;23.80;77.60
57390;DHT22;43217;52.694;6.214;2022-07-29T14:27:02;23.90;78.10
57390;DHT22;43217;52.694;6.214;2022-07-29T14:29:27;24.00;79.00
57390;DHT22;43217;52.694;6.214;2022-07-29T14:31:53;24.00;79.40
57390;DHT22;43217;52.694;6.214;2022-07-29T14:34:19;24.10;78.80
57390;DHT22;43217;52.694;6.214;2022-07-29T14:36:44;24.10;76.60
57390;DHT22;43217;52.694;6.214;2022-07-29T14:39:10;24.10;74.80
57390;DHT22;43217;52.694;6.214;2022-07-29T14:41:35;24.20;71.00
57390;DHT22;43217;52.694;6.214;2022-07-29T14:44:01;24.30;72.30
57390;DHT22;43217;52.694;6.214;2022-07-29T14:46:27;24.30;73.40
57390;DHT22;43217;52.694;6.214;2022-07-29T14:48:52;24.30;72.20
57390;DHT22;43217;52.694;6.214;2022-07-29T14:51:18;24.30;71.40
57390;DHT22;43217;52.694;6.214;2022-07-29T14:53:43;24.40;71.40
57390;DHT22;43217;52.694;6.214;2022-07-29T14:56:09;24.40;69.40
57390;DHT22;43217;52.694;6.214;2022-07-29T14:58:34;24.40;69.50
57390;DHT22;43217;52.694;6.214;2022-07-29T15:01:00;24.40;68.10
57390;DHT22;43217;52.694;6.214;2022-07-29T15:03:26;24.30;67.60
57390;DHT22;43217;52.694;6.214;2022-07-29T15:05:53;24.40;66.30
57390;DHT22;43217;52.694;6.214;2022-07-29T15:08:18;24.40;65.90
57390;DHT22;43217;52.694;6.214;2022-07-29T15:10:44;24.50;66.40
57390;DHT22;43217;52.694;6.214;2022-07-29T15:13:09;24.50;65.50
57390;DHT22;43217;52.694;6.214;2022-07-29T15:15:35;24.50;66.70
57390;DHT22;43217;52.694;6.214;2022-07-29T15:18:01;24.50;65.00
57390;DHT22;43217;52.694;6.214;2022-07-29T15:20:26;24.50;63.80
57390;DHT22;43217;52.694;6.214;2022-07-29T15:22:52;24.50;63.50
57390;DHT22;43217;52.694;6.214;2022-07-29T15:25:18;24.50;65.00
57390;DHT22;43217;52.694;6.214;2022-07-29T15:27:43;24.60;64.90
57390;DHT22;43217;52.694;6.214;2022-07-29T15:30:09;24.60;64.80
57390;DHT22;43217;52.694;6.214;2022-07-29T15:32:35;24.50;64.20
57390;DHT22;43217;52.694;6.214;2022-07-29T15:35:00;24.60;64.90
57390;DHT22;43217;52.694;6.214;2022-07-29T15:37:26;24.50;64.20
57390;DHT22;43217;52.694;6.214;2022-07-29T15:39:53;24.50;64.10
57390;DHT22;43217;52.694;6.214;2022-07-29T15:42:19;24.50;62.70
57390;DHT22;43217;52.694;6.214;2022-07-29T15:44:44;24.50;63.50
57390;DHT22;43217;52.694;6.214;2022-07-29T15:47:10;24.50;61.80
57390;DHT22;43217;52.694;6.214;2022-07-29T15:49:36;24.40;64.00
57390;DHT22;43217;52.694;6.214;2022-07-29T15:52:09;24.50;64.00
57390;DHT22;43217;52.694;6.214;2022-07-29T15:54:35;24.50;63.80
57390;DHT22;43217;52.694;6.214;2022-07-29T15:57:02;24.50;64.40
57390;DHT22;43217;52.694;6.214;2022-07-29T15:59:28;24.50;63.50
57390;DHT22;43217;52.694;6.214;2022-07-29T16:01:54;24.50;63.50
57390;DHT22;43217;52.694;6.214;2022-07-29T16:04:20;24.60;65.00
57390;DHT22;43217;52.694;6.214;2022-07-29T16:06:46;24.60;62.70
57390;DHT22;43217;52.694;6.214;2022-07-29T16:09:11;24.60;62.80